Time;durP1;ratioP1;P1;durP2;ratioP2;P2;SDS_P1;SDS_P2;PMS_P1;PMS_P2;Temp;Humidity;BMP_temperature;BMP_pressure;BME280_temperature;BME280_humidity;BME280_pressure;Samples;Min_cycle;Max_cycle;Signal;HPM_P1;HPM_P2
2022/05/10 00:00:17;;;;;;;2.83;1.83;;;;;;;;;;5054411;28;20048;-73
2022/05/10 00:02:45;;;;;;;2.00;1.88;;;;;;;;;;5054674;28;20359;-73
2022/05/10 00:05:11;;;;;;;2.20;2.00;;;;;;;;;;5036836;28;20025;-73
2022/05/10 00:07:37;;;;;;;2.20;2.00;;;;;;;;;;5054178;28;20047;-73
2022/05/10 00:10:05;;;;;;;3.10;2.00;;;;;;;;;;5054423;28;20049;-73
2022/05/10 00:12:31;;;;;;;2.75;1.90;;;;;;;;;;5053970;28;20045;-73
2022/05/10 00:14:57;;;;;;;3.53;2.20;;;;;;;;;;5054317;28;20491;-73
2022/05/10 00:17:24;;;;;;;2.28;2.08;;;;;;;;;;5054042;28;20430;-73
2022/05/10 00:19:50;;;;;;;2.92;2.08;;;;;;;;;;5053753;28;20361;-73
2022/05/10 00:22:15;;;;;;;3.05;1.80;;;;;;;;;;5054374;28;20037;-73
2022/05/10 00:24:40;;;;;;;3.67;1.93;;;;;;;;;;5054008;28;20032;-73
2022/05/10 00:27:05;;;;;;;2.55;1.90;;;;;;;;;;5053974;28;20275;-73
2022/05/10 00:29:31;;;;;;;1.83;1.73;;;;;;;;;;5036045;28;20021;-73
2022/05/10 00:31:57;;;;;;;2.10;1.60;;;;;;;;;;5054140;28;20052;-73
2022/05/10 00:34:23;;;;;;;2.65;1.67;;;;;;;;;;5054248;28;20433;-74
2022/05/10 00:36:48;;;;;;;2.05;1.83;;;;;;;;;;5054208;28;20473;-74
2022/05/10 00:39:14;;;;;;;2.33;1.70;;;;;;;;;;5053914;28;20096;-74
2022/05/10 00:41:50;;;;;;;4.10;1.70;;;;;;;;;;5053977;28;20055;-74
2022/05/10 00:44:20;;;;;;;2.67;1.85;;;;;;;;;;5053997;28;20044;-74
2022/05/10 00:46:58;;;;;;;1.90;1.70;;;;;;;;;;5054098;28;20561;-73
2022/05/10 00:49:29;;;;;;;2.08;1.88;;;;;;;;;;5053788;28;20042;-73
2022/05/10 00:52:11;;;;;;;3.70;1.85;;;;;;;;;;5053633;28;20372;-73
2022/05/10 00:54:48;;;;;;;2.08;1.83;;;;;;;;;;5053825;28;20041;-73
2022/05/10 00:57:32;;;;;;;2.45;1.95;;;;;;;;;;5053611;28;20037;-73
2022/05/10 01:00:09;;;;;;;2.67;1.70;;;;;;;;;;5053951;28;20036;-73
2022/05/10 01:02:43;;;;;;;3.45;1.70;;;;;;;;;;5053664;28;20380;-74
2022/05/10 01:05:14;;;;;;;1.65;1.50;;;;;;;;;;5053592;28;20029;-74
2022/05/10 01:07:49;;;;;;;2.60;1.63;;;;;;;;;;5035754;28;20040;-74
2022/05/10 01:10:34;;;;;;;1.70;1.60;;;;;;;;;;5053742;28;20029;-75
2022/05/10 01:13:05;;;;;;;2.72;1.85;;;;;;;;;;5039139;28;20045;-74
2022/05/10 01:15:30;;;;;;;;;;;;;;;;;;5054330;28;20029;-74
2022/05/10 01:17:57;;;;;;;1.88;1.67;;;;;;;;;;5053423;28;19905;-74
2022/05/10 01:20:27;;;;;;;2.08;1.60;;;;;;;;;;5053208;28;20544;-76
2022/05/10 01:23:12;;;;;;;1.80;1.67;;;;;;;;;;5053506;28;20028;-76
2022/05/10 01:26:00;;;;;;;3.70;2.03;;;;;;;;;;5057469;28;20480;-76
2022/05/10 01:28:33;;;;;;;2.10;1.63;;;;;;;;;;5054819;28;20029;-76
2022/05/10 01:31:02;;;;;;;1.83;1.67;;;;;;;;;;5057168;28;20033;-76
2022/05/10 01:33:36;;;;;;;2.15;1.92;;;;;;;;;;5057126;28;20025;-76
2022/05/10 01:36:02;;;;;;;2.75;1.80;;;;;;;;;;5039404;28;20025;-76
2022/05/10 01:38:34;;;;;;;2.70;1.70;;;;;;;;;;5039374;28;20354;-75
2022/05/10 01:41:06;;;;;;;3.33;1.67;;;;;;;;;;5057274;28;20460;-75
2022/05/10 01:43:33;;;;;;;2.42;1.80;;;;;;;;;;5056856;28;20033;-76
2022/05/10 01:46:02;;;;;;;3.23;1.50;;;;;;;;;;5057287;28;20071;-76
2022/05/10 01:48:32;;;;;;;2.50;1.30;;;;;;;;;;5057067;28;20457;-75
2022/05/10 01:51:10;;;;;;;1.90;1.70;;;;;;;;;;5056858;28;20083;-74
2022/05/10 01:53:37;;;;;;;1.83;1.45;;;;;;;;;;5057035;28;20496;-74
2022/05/10 01:56:28;;;;;;;1.83;1.60;;;;;;;;;;5039015;28;20056;-75
2022/05/10 01:58:54;;;;;;;2.72;1.77;;;;;;;;;;5052676;28;20091;-74
2022/05/10 02:01:27;;;;;;;1.92;1.63;;;;;;;;;;5056799;28;20021;-74
2022/05/10 02:03:55;;;;;;;5.05;1.80;;;;;;;;;;5056748;28;20094;-74
2022/05/10 02:06:33;;;;;;;2.17;1.40;;;;;;;;;;5056932;28;20029;-72
2022/05/10 02:09:17;;;;;;;2.13;1.67;;;;;;;;;;5056269;28;20037;-72
2022/05/10 02:11:53;;;;;;;2.35;1.50;;;;;;;;;;5056235;28;20052;-72
2022/05/10 02:14:19;;;;;;;2.53;1.60;;;;;;;;;;5038481;28;20067;-72
2022/05/10 02:16:49;;;;;;;4.05;1.90;;;;;;;;;;5056824;28;20025;-73
2022/05/10 02:19:18;;;;;;;2.95;1.60;;;;;;;;;;5056353;28;20094;-73
2022/05/10 02:21:50;;;;;;;3.90;1.48;;;;;;;;;;5056610;28;20047;-73
2022/05/10 02:24:24;;;;;;;1.83;1.67;;;;;;;;;;5056081;28;20511;-72
2022/05/10 02:26:54;;;;;;;2.92;1.65;;;;;;;;;;5038769;28;20052;-74
2022/05/10 02:29:29;;;;;;;3.50;1.80;;;;;;;;;;5056248;28;20039;-75
2022/05/10 02:34:42;;;;;;;3.22;1.80;;;;;;;;;;5055136;28;20112;-73
2022/05/10 02:37:08;;;;;;;2.03;1.70;;;;;;;;;;5037487;28;20032;-73
2022/05/10 02:39:33;;;;;;;2.97;1.77;;;;;;;;;;5038694;28;20033;-73
2022/05/10 02:42:00;;;;;;;2.58;2.38;;;;;;;;;;5055676;28;20024;-73
2022/05/10 02:44:26;;;;;;;4.20;2.25;;;;;;;;;;5055646;28;20102;-73
2022/05/10 02:46:52;;;;;;;2.28;2.03;;;;;;;;;;5056065;28;20426;-74
2022/05/10 02:49:18;;;;;;;3.50;2.05;;;;;;;;;;5037948;28;20120;-74
2022/05/10 02:51:43;;;;;;;2.22;2.08;;;;;;;;;;5055573;28;20052;-73
2022/05/10 02:54:09;;;;;;;2.72;1.95;;;;;;;;;;5055571;28;20380;-73
2022/05/10 02:56:34;;;;;;;2.00;1.90;;;;;;;;;;5055543;28;20021;-73
2022/05/10 02:59:02;;;;;;;2.45;2.25;;;;;;;;;;5055704;28;20512;-73
2022/05/10 03:01:27;;;;;;;4.07;1.90;;;;;;;;;;5055543;28;20028;-73
2022/05/10 03:03:53;;;;;;;1.92;1.80;;;;;;;;;;5037710;28;20454;-73
2022/05/10 03:06:20;;;;;;;2.13;1.95;;;;;;;;;;5055408;28;20032;-74
2022/05/10 03:08:46;;;;;;;4.25;1.70;;;;;;;;;;5055593;28;20116;-73
2022/05/10 03:11:11;;;;;;;2.20;1.95;;;;;;;;;;5054710;28;20469;-75
2022/05/10 03:13:37;;;;;;;2.45;1.75;;;;;;;;;;5037716;28;20124;-76
2022/05/10 03:16:03;;;;;;;2.95;1.80;;;;;;;;;;5055303;28;20068;-74
2022/05/10 03:18:28;;;;;;;1.73;1.63;;;;;;;;;;5037549;28;20025;-74
2022/05/10 03:20:54;;;;;;;2.50;1.83;;;;;;;;;;5055197;28;20017;-74
2022/05/10 03:23:19;;;;;;;1.73;1.63;;;;;;;;;;5055272;28;20139;-76
2022/05/10 03:25:45;;;;;;;6.05;1.92;;;;;;;;;;5037157;28;20036;-75
2022/05/10 03:28:10;;;;;;;2.45;1.88;;;;;;;;;;5054689;28;20029;-73
2022/05/10 03:30:36;;;;;;;2.17;1.98;;;;;;;;;;5055051;28;20028;-73
2022/05/10 03:33:02;;;;;;;1.90;1.67;;;;;;;;;;5055028;28;20056;-73
2022/05/10 03:35:27;;;;;;;2.45;1.85;;;;;;;;;;5055319;28;20025;-74
2022/05/10 03:37:53;;;;;;;2.13;1.42;;;;;;;;;;5037141;28;20036;-74
2022/05/10 03:40:18;;;;;;;2.40;1.70;;;;;;;;;;5054329;28;20417;-74
2022/05/10 03:42:45;;;;;;;2.08;1.80;;;;;;;;;;5054962;28;20791;-73
2022/05/10 03:45:11;;;;;;;2.00;1.80;;;;;;;;;;5054517;28;20022;-75
2022/05/10 03:47:36;;;;;;;2.10;1.83;;;;;;;;;;5054177;28;20033;-73
2022/05/10 03:50:04;;;;;;;3.05;1.67;;;;;;;;;;5054367;28;20066;-73
2022/05/10 03:52:29;;;;;;;1.83;1.70;;;;;;;;;;5054415;28;20025;-73
2022/05/10 03:54:54;;;;;;;2.20;2.00;;;;;;;;;;5054576;28;20526;-73
2022/05/10 03:57:21;;;;;;;2.85;1.80;;;;;;;;;;5054698;28;20275;-74
2022/05/10 03:59:46;;;;;;;2.10;1.90;;;;;;;;;;5054234;28;20032;-74
2022/05/10 04:02:13;;;;;;;2.33;1.80;;;;;;;;;;5054155;28;20492;-75
2022/05/10 04:04:39;;;;;;;3.80;2.08;;;;;;;;;;5053954;28;20025;-73
2022/05/10 04:07:05;;;;;;;2.47;1.60;;;;;;;;;;5054169;28;20043;-74
2022/05/10 04:09:31;;;;;;;1.77;1.58;;;;;;;;;;5053971;28;20021;-75
2022/05/10 04:11:57;;;;;;;2.17;1.80;;;;;;;;;;5054021;28;20523;-75
2022/05/10 04:14:23;;;;;;;3.45;2.47;;;;;;;;;;5047850;28;20028;-74
2022/05/10 04:16:48;;;;;;;2.83;1.85;;;;;;;;;;5052464;28;20112;-74
2022/05/10 04:19:13;;;;;;;1.70;1.60;;;;;;;;;;5052850;28;20025;-74
2022/05/10 04:21:40;;;;;;;4.70;2.00;;;;;;;;;;5052122;28;20033;-75
2022/05/10 04:24:05;;;;;;;2.90;1.90;;;;;;;;;;5051574;28;20029;-74
2022/05/10 04:26:30;;;;;;;2.90;1.60;;;;;;;;;;5051852;28;20071;-74
2022/05/10 04:28:57;;;;;;;1.63;1.52;;;;;;;;;;5048544;28;20376;-74
2022/05/10 04:31:23;;;;;;;2.47;1.70;;;;;;;;;;5031363;28;20029;-74
2022/05/10 04:33:48;;;;;;;3.17;1.75;;;;;;;;;;5047983;28;20009;-74
2022/05/10 04:36:13;;;;;;;2.85;1.75;;;;;;;;;;5048167;28;20384;-74
2022/05/10 04:38:39;;;;;;;2.83;1.70;;;;;;;;;;5047910;28;20025;-74
2022/05/10 04:43:48;;;;;;;2.83;1.80;;;;;;;;;;5048057;28;20033;-74
2022/05/10 04:46:14;;;;;;;1.88;1.77;;;;;;;;;;5047910;28;20032;-74
2022/05/10 04:48:39;;;;;;;2.88;1.73;;;;;;;;;;5032168;28;20031;-74
2022/05/10 04:51:05;;;;;;;2.67;1.90;;;;;;;;;;5048901;28;20021;-75
2022/05/10 04:53:31;;;;;;;2.95;2.13;;;;;;;;;;5030750;28;20271;-76
2022/05/10 04:55:56;;;;;;;3.28;1.90;;;;;;;;;;5048990;28;20021;-75
2022/05/10 04:58:21;;;;;;;3.42;2.20;;;;;;;;;;5049256;28;20045;-76
2022/05/10 05:00:47;;;;;;;3.92;3.08;;;;;;;;;;5053188;28;20433;-76
2022/05/10 05:03:12;;;;;;;2.28;2.08;;;;;;;;;;5052794;28;20029;-76
2022/05/10 05:05:37;;;;;;;2.60;1.70;;;;;;;;;;5052949;28;20021;-76
2022/05/10 05:08:03;;;;;;;2.10;1.90;;;;;;;;;;5052974;28;20064;-76
2022/05/10 05:10:28;;;;;;;2.67;1.75;;;;;;;;;;5052936;28;20025;-76
2022/05/10 05:12:54;;;;;;;2.97;2.28;;;;;;;;;;5054053;28;20500;-75
2022/05/10 05:15:19;;;;;;;2.53;2.17;;;;;;;;;;5053540;28;20032;-76
2022/05/10 05:17:45;;;;;;;2.13;1.85;;;;;;;;;;5052675;28;20477;-76
2022/05/10 05:20:10;;;;;;;2.37;2.17;;;;;;;;;;5052803;28;20029;-76
2022/05/10 05:22:36;;;;;;;3.70;1.90;;;;;;;;;;5034716;28;20275;-76
2022/05/10 05:25:02;;;;;;;3.08;1.65;;;;;;;;;;5052517;28;20024;-76
2022/05/10 05:27:27;;;;;;;2.40;1.63;;;;;;;;;;5052713;28;20032;-76
2022/05/10 05:29:52;;;;;;;2.45;1.80;;;;;;;;;;5052462;28;20029;-76
2022/05/10 05:32:19;;;;;;;2.65;1.90;;;;;;;;;;5052670;28;20025;-76
2022/05/10 05:34:45;;;;;;;2.78;1.83;;;;;;;;;;5052130;28;20078;-76
2022/05/10 05:39:55;;;;;;;1.95;1.65;;;;;;;;;;5052018;28;20039;-74
2022/05/10 05:42:20;;;;;;;2.10;1.90;;;;;;;;;;5052201;28;20033;-76
2022/05/10 05:44:45;;;;;;;3.08;2.08;;;;;;;;;;5051964;28;20642;-74
2022/05/10 05:47:11;;;;;;;3.92;1.92;;;;;;;;;;5052072;28;20017;-74
2022/05/10 05:49:36;;;;;;;2.83;1.80;;;;;;;;;;5052533;28;20167;-73
2022/05/10 05:52:02;;;;;;;2.97;2.20;;;;;;;;;;5052051;28;20013;-73
2022/05/10 05:54:28;;;;;;;2.10;1.77;;;;;;;;;;5051650;28;20040;-73
2022/05/10 05:57:00;;;;;;;2.20;2.00;;;;;;;;;;5052128;28;20472;-73
2022/05/10 05:59:26;;;;;;;2.30;1.83;;;;;;;;;;5052027;28;20028;-73
2022/05/10 06:01:51;;;;;;;3.05;1.85;;;;;;;;;;5051865;28;20354;-73
2022/05/10 06:04:18;;;;;;;3.22;1.88;;;;;;;;;;5051514;28;20047;-73
2022/05/10 06:06:43;;;;;;;3.53;2.00;;;;;;;;;;5052097;28;20032;-73
2022/05/10 06:09:09;;;;;;;2.17;1.85;;;;;;;;;;5051331;28;20032;-73
2022/05/10 06:11:35;;;;;;;2.50;1.80;;;;;;;;;;5051698;28;20086;-71
2022/05/10 06:14:01;;;;;;;2.10;1.90;;;;;;;;;;5051349;28;20052;-71
2022/05/10 06:16:27;;;;;;;4.65;2.22;;;;;;;;;;5051653;28;20067;-71
2022/05/10 06:18:52;;;;;;;2.22;1.85;;;;;;;;;;5051779;28;20048;-71
2022/05/10 06:21:18;;;;;;;2.10;1.55;;;;;;;;;;5051571;28;20071;-71
2022/05/10 06:23:43;;;;;;;1.75;1.63;;;;;;;;;;5051320;28;20118;-71
2022/05/10 06:26:09;;;;;;;1.98;1.88;;;;;;;;;;5051480;28;20021;-71
2022/05/10 06:28:34;;;;;;;2.05;1.83;;;;;;;;;;5051432;28;20496;-71
2022/05/10 06:31:01;;;;;;;2.10;1.80;;;;;;;;;;5033481;28;20100;-71
2022/05/10 06:33:27;;;;;;;4.10;1.70;;;;;;;;;;5051286;28;20120;-71
2022/05/10 06:35:53;;;;;;;3.08;1.60;;;;;;;;;;5051161;28;20111;-71
2022/05/10 06:38:27;;;;;;;2.50;2.10;;;;;;;;;;5051373;28;20079;-71
2022/05/10 06:40:54;;;;;;;2.47;1.40;;;;;;;;;;5033427;28;20037;-71
2022/05/10 06:43:20;;;;;;;2.28;1.80;;;;;;;;;;5050876;28;20021;-71
2022/05/10 06:45:48;;;;;;;4.10;1.80;;;;;;;;;;5034465;28;20072;-71
2022/05/10 06:48:14;;;;;;;4.97;2.00;;;;;;;;;;5052208;28;20056;-72
2022/05/10 06:50:41;;;;;;;2.20;1.55;;;;;;;;;;5052717;28;20025;-72
2022/05/10 06:53:06;;;;;;;3.50;1.52;;;;;;;;;;5053028;28;20029;-72
2022/05/10 06:55:33;;;;;;;2.20;1.60;;;;;;;;;;5052765;28;20033;-71
2022/05/10 06:58:01;;;;;;;1.50;1.40;;;;;;;;;;5034663;28;20380;-73
2022/05/10 07:00:26;;;;;;;1.60;1.50;;;;;;;;;;5052922;28;20443;-73
2022/05/10 07:02:53;;;;;;;2.40;1.60;;;;;;;;;;5053045;28;20071;-71
2022/05/10 07:05:19;;;;;;;3.92;1.70;;;;;;;;;;5053087;28;20025;-71
2022/05/10 07:07:46;;;;;;;2.75;1.50;;;;;;;;;;5036112;28;20017;-71
2022/05/10 07:10:13;;;;;;;2.00;1.40;;;;;;;;;;5052852;28;20107;-71
2022/05/10 07:12:40;;;;;;;2.55;1.40;;;;;;;;;;5052803;28;20057;-72
2022/05/10 07:15:06;;;;;;;4.00;2.10;;;;;;;;;;5052672;28;20021;-71
2022/05/10 07:17:31;;;;;;;1.65;1.40;;;;;;;;;;5051900;28;20070;-73
2022/05/10 07:19:58;;;;;;;6.43;2.20;;;;;;;;;;5052570;28;20037;-71
2022/05/10 07:22:25;;;;;;;1.50;1.40;;;;;;;;;;5051900;28;20077;-72
2022/05/10 07:24:51;;;;;;;4.22;1.63;;;;;;;;;;5052268;28;20469;-71
2022/05/10 07:27:17;;;;;;;2.90;1.77;;;;;;;;;;5052124;28;20021;-71
2022/05/10 07:29:43;;;;;;;2.05;1.60;;;;;;;;;;5052082;28;20637;-71
2022/05/10 07:32:09;;;;;;;2.50;1.40;;;;;;;;;;5034572;28;20016;-71
2022/05/10 07:34:34;;;;;;;3.00;1.40;;;;;;;;;;5052076;28;20040;-71
2022/05/10 07:37:00;;;;;;;8.18;2.70;;;;;;;;;;5052242;28;20052;-71
2022/05/10 07:39:26;;;;;;;3.88;1.80;;;;;;;;;;5034094;28;20039;-70
2022/05/10 07:41:54;;;;;;;2.45;1.70;;;;;;;;;;5052098;28;20035;-70
2022/05/10 07:44:21;;;;;;;2.65;1.88;;;;;;;;;;5051726;28;20037;-70
2022/05/10 07:46:46;;;;;;;4.88;2.03;;;;;;;;;;5051764;28;20016;-70
2022/05/10 07:49:11;;;;;;;2.63;1.77;;;;;;;;;;5051937;28;20021;-71
2022/05/10 07:51:37;;;;;;;2.97;1.83;;;;;;;;;;5033941;28;20083;-71
2022/05/10 07:54:03;;;;;;;3.85;1.63;;;;;;;;;;5051827;28;20047;-70
2022/05/10 07:56:28;;;;;;;1.92;1.50;;;;;;;;;;5051444;28;20448;-71
2022/05/10 07:58:55;;;;;;;3.15;1.83;;;;;;;;;;5051793;28;20029;-71
2022/05/10 08:01:21;;;;;;;1.73;1.55;;;;;;;;;;5033793;28;20395;-70
2022/05/10 08:03:46;;;;;;;4.30;1.90;;;;;;;;;;5051785;28;20104;-71
2022/05/10 08:06:12;;;;;;;3.30;2.08;;;;;;;;;;5051386;28;20107;-72
2022/05/10 08:08:37;;;;;;;4.65;2.05;;;;;;;;;;5033674;28;20045;-71
2022/05/10 08:11:04;;;;;;;2.83;1.98;;;;;;;;;;5033480;28;20041;-71
2022/05/10 08:13:31;;;;;;;2.28;1.80;;;;;;;;;;5051515;28;20025;-71
2022/05/10 08:15:57;;;;;;;2.03;1.83;;;;;;;;;;5051455;28;20025;-71
2022/05/10 08:18:23;;;;;;;1.55;1.38;;;;;;;;;;5033435;28;20520;-70
2022/05/10 08:20:50;;;;;;;2.42;2.22;;;;;;;;;;5016867;28;20115;-71
2022/05/10 08:23:21;;;;;;;3.55;1.80;;;;;;;;;;5051485;28;20025;-71
2022/05/10 08:25:48;;;;;;;3.97;2.00;;;;;;;;;;5051282;28;20036;-70
2022/05/10 08:28:13;;;;;;;2.15;1.95;;;;;;;;;;5051337;28;20017;-71
2022/05/10 08:30:40;;;;;;;2.58;1.83;;;;;;;;;;5051303;28;20032;-71
2022/05/10 08:33:06;;;;;;;3.28;2.00;;;;;;;;;;5033083;28;20013;-76
2022/05/10 08:35:33;;;;;;;1.65;1.55;;;;;;;;;;5051979;28;20677;-77
2022/05/10 08:37:59;;;;;;;1.65;1.48;;;;;;;;;;5051988;28;20029;-77
2022/05/10 08:40:27;;;;;;;2.70;1.42;;;;;;;;;;5052121;28;20025;-76
2022/05/10 08:42:55;;;;;;;2.58;1.60;;;;;;;;;;5051732;28;20446;-77
2022/05/10 08:45:22;;;;;;;2.45;1.45;;;;;;;;;;5051382;28;20035;-77
2022/05/10 08:47:48;;;;;;;4.05;2.17;;;;;;;;;;5031103;28;20063;-77
2022/05/10 08:50:13;;;;;;;2.28;2.08;;;;;;;;;;5048933;28;20400;-77
2022/05/10 08:52:40;;;;;;;3.00;2.00;;;;;;;;;;5049147;28;20048;-77
2022/05/10 08:55:08;;;;;;;2.45;2.03;;;;;;;;;;5030559;28;20037;-77
2022/05/10 08:57:56;;;;;;;2.47;2.15;;;;;;;;;;5050012;28;20381;-77
2022/05/10 09:00:25;;;;;;;2.83;2.10;;;;;;;;;;5023330;28;20611;-76
2022/05/10 09:02:54;;;;;;;3.53;2.00;;;;;;;;;;5051614;28;20028;-76
2022/05/10 09:05:26;;;;;;;2.00;1.77;;;;;;;;;;5051330;28;20036;-76
2022/05/10 09:08:03;;;;;;;3.53;2.20;;;;;;;;;;5051652;28;20400;-76
2022/05/10 09:10:35;;;;;;;6.53;1.98;;;;;;;;;;5051475;28;20036;-77
2022/05/10 09:13:02;;;;;;;3.38;1.63;;;;;;;;;;5051500;28;20056;-76
2022/05/10 09:15:35;;;;;;;2.60;1.90;;;;;;;;;;5051548;28;20033;-76
2022/05/10 09:18:13;;;;;;;2.72;2.00;;;;;;;;;;5048542;28;20029;-76
2022/05/10 09:20:45;;;;;;;1.67;1.55;;;;;;;;;;5041211;28;20082;-76
2022/05/10 09:23:19;;;;;;;4.50;2.20;;;;;;;;;;5046743;28;20032;-76
2022/05/10 09:25:45;;;;;;;2.58;2.00;;;;;;;;;;5046599;28;20029;-76
2022/05/10 09:28:19;;;;;;;3.58;1.90;;;;;;;;;;5047329;28;20059;-76
2022/05/10 09:34:45;;;;;;;2.10;2.00;;;;;;;;;;5047657;28;20607;-76
2022/05/10 09:36:23;;;;;;;2.47;1.80;;;;;;;;;;5047613;28;20747;-77
2022/05/10 09:38:50;;;;;;;2.35;1.70;;;;;;;;;;5029597;28;20431;-76
2022/05/10 09:41:27;;;;;;;3.65;1.92;;;;;;;;;;5047173;28;20053;-77
2022/05/10 09:43:53;;;;;;;1.90;1.73;;;;;;;;;;5046416;28;20115;-76
2022/05/10 09:46:21;;;;;;;4.53;2.08;;;;;;;;;;5050017;28;20020;-77
2022/05/10 09:48:47;;;;;;;4.95;2.10;;;;;;;;;;5050453;28;20120;-76
2022/05/10 09:51:31;;;;;;;1.92;1.83;;;;;;;;;;5050968;28;20120;-76
2022/05/10 09:53:57;;;;;;;1.65;1.40;;;;;;;;;;5050434;28;20024;-76
2022/05/10 09:56:29;;;;;;;3.45;2.05;;;;;;;;;;5050734;28;20021;-76
2022/05/10 09:58:56;;;;;;;2.55;1.80;;;;;;;;;;5051199;28;20109;-77
2022/05/10 10:01:42;;;;;;;2.80;1.80;;;;;;;;;;5051141;28;20496;-76
2022/05/10 10:04:31;;;;;;;4.32;2.38;;;;;;;;;;5051163;28;20063;-76
2022/05/10 10:07:04;;;;;;;3.08;2.08;;;;;;;;;;5040833;28;20055;-76
2022/05/10 10:09:33;;;;;;;2.05;1.88;;;;;;;;;;5051341;28;20021;-76
2022/05/10 10:11:58;;;;;;;4.22;1.95;;;;;;;;;;5039885;28;20099;-76
2022/05/10 10:14:43;;;;;;;2.47;2.20;;;;;;;;;;5031704;28;20037;-76
2022/05/10 10:17:28;;;;;;;1.75;1.63;;;;;;;;;;5031493;28;20653;-77
2022/05/10 10:20:00;;;;;;;2.70;1.17;;;;;;;;;;5031161;28;20096;-77
2022/05/10 10:22:32;;;;;;;2.00;1.80;;;;;;;;;;5031906;28;20041;-76
2022/05/10 10:24:58;;;;;;;3.97;2.45;;;;;;;;;;5012875;28;20124;-76
2022/05/10 10:27:30;;;;;;;3.88;2.10;;;;;;;;;;5031328;28;20092;-76
2022/05/10 10:29:57;;;;;;;2.22;2.10;;;;;;;;;;5031609;28;20033;-76
2022/05/10 10:32:28;;;;;;;3.50;2.42;;;;;;;;;;5013318;28;20028;-77
2022/05/10 10:34:53;;;;;;;;;;;;;;;;;;5031211;28;20033;-76
2022/05/10 10:37:32;;;;;;;2.20;1.95;;;;;;;;;;5030922;28;19905;-76
2022/05/10 10:39:58;;;;;;;4.03;2.22;;;;;;;;;;5030879;28;20061;-76
2022/05/10 10:42:39;;;;;;;1.60;1.50;;;;;;;;;;5031408;28;20052;-76
2022/05/10 10:45:11;;;;;;;2.92;2.05;;;;;;;;;;5031215;28;20112;-76
2022/05/10 10:47:44;;;;;;;2.25;1.88;;;;;;;;;;5030887;28;20075;-76
2022/05/10 10:50:12;;;;;;;3.60;2.33;;;;;;;;;;5030884;28;20041;-76
2022/05/10 10:52:38;;;;;;;2.63;1.80;;;;;;;;;;5031177;28;20064;-76
2022/05/10 10:55:06;;;;;;;2.17;1.83;;;;;;;;;;5030392;28;20033;-76
2022/05/10 10:57:32;;;;;;;2.28;1.90;;;;;;;;;;5029215;28;20030;-76
2022/05/10 11:00:00;;;;;;;2.10;1.90;;;;;;;;;;5031008;28;20073;-76
2022/05/10 11:02:43;;;;;;;2.30;2.10;;;;;;;;;;5027690;28;20022;-76
2022/05/10 11:05:21;;;;;;;5.72;2.08;;;;;;;;;;5032442;28;20034;-76
2022/05/10 11:08:04;;;;;;;2.92;2.10;;;;;;;;;;5033725;28;20034;-76
2022/05/10 11:10:43;;;;;;;4.43;2.10;;;;;;;;;;5033527;28;20037;-76
2022/05/10 11:13:30;;;;;;;2.53;1.50;;;;;;;;;;5033598;28;20077;-76
2022/05/10 11:16:03;;;;;;;2.85;1.55;;;;;;;;;;5031214;28;20108;-76
2022/05/10 11:18:29;;;;;;;1.92;1.40;;;;;;;;;;5006714;28;20385;-76
2022/05/10 11:21:01;;;;;;;3.33;1.77;;;;;;;;;;5032767;28;20026;-77
2022/05/10 11:23:30;;;;;;;3.38;2.40;;;;;;;;;;5032012;28;20033;-77
2022/05/10 11:26:12;;;;;;;2.25;2.05;;;;;;;;;;5033201;28;20017;-77
2022/05/10 11:29:02;;;;;;;3.30;2.10;;;;;;;;;;5032913;28;20033;-77
2022/05/10 11:31:43;;;;;;;3.20;1.95;;;;;;;;;;5015313;28;20494;-77
2022/05/10 11:34:27;;;;;;;2.58;2.10;;;;;;;;;;5033094;28;20018;-77
2022/05/10 11:37:00;;;;;;;2.50;2.30;;;;;;;;;;5031597;28;20524;-77
2022/05/10 11:39:45;;;;;;;2.42;2.00;;;;;;;;;;5029881;28;20033;-77
2022/05/10 11:42:16;;;;;;;4.10;2.10;;;;;;;;;;5029744;28;20038;-77
2022/05/10 11:45:01;;;;;;;3.08;2.65;;;;;;;;;;5029756;28;20030;-76
2022/05/10 11:47:35;;;;;;;3.63;1.98;;;;;;;;;;5029703;28;20049;-76
2022/05/10 11:50:10;;;;;;;2.78;1.88;;;;;;;;;;5030445;28;20497;-75
2022/05/10 11:52:38;;;;;;;2.13;1.75;;;;;;;;;;5031463;28;20053;-75
2022/05/10 11:55:23;;;;;;;3.15;2.15;;;;;;;;;;5030915;28;20084;-75
2022/05/10 11:57:51;;;;;;;4.22;3.10;;;;;;;;;;5031172;28;20335;-75
2022/05/10 12:00:27;;;;;;;3.13;2.42;;;;;;;;;;5031432;28;20033;-75
2022/05/10 12:02:58;;;;;;;1.98;1.77;;;;;;;;;;5031465;28;20149;-75
2022/05/10 12:05:25;;;;;;;3.78;2.80;;;;;;;;;;5031104;28;20036;-76
2022/05/10 12:07:58;;;;;;;1.73;1.63;;;;;;;;;;5030481;28;20045;-76
2022/05/10 12:10:35;;;;;;;4.63;1.95;;;;;;;;;;5031155;28;20061;-77
2022/05/10 12:13:04;;;;;;;2.45;2.25;;;;;;;;;;5048693;28;20049;-77
2022/05/10 12:21:21;;;;;;;4.10;2.40;;;;;;;;;;5050743;28;20808;-75
2022/05/10 12:24:09;;;;;;;2.75;1.80;;;;;;;;;;5050843;28;20029;-77
2022/05/10 12:26:57;;;;;;;4.32;2.20;;;;;;;;;;5033003;28;20115;-76
2022/05/10 12:29:39;;;;;;;4.55;2.10;;;;;;;;;;5051339;28;20021;-76
2022/05/10 12:32:05;;;;;;;3.97;1.80;;;;;;;;;;5050742;28;20033;-76
2022/05/10 12:34:49;;;;;;;2.10;1.60;;;;;;;;;;5050608;28;20108;-76
2022/05/10 12:37:27;;;;;;;3.90;2.15;;;;;;;;;;5050949;28;20361;-76
2022/05/10 12:40:08;;;;;;;2.17;1.77;;;;;;;;;;5033047;28;20040;-76
2022/05/10 12:42:54;;;;;;;5.60;3.20;;;;;;;;;;5050840;28;20025;-76
2022/05/10 12:45:32;;;;;;;3.45;1.83;;;;;;;;;;5015533;28;20456;-76
2022/05/10 12:48:05;;;;;;;13.60;8.82;;;;;;;;;;5032821;28;20063;-76
2022/05/10 12:50:33;;;;;;;65.10;49.10;;;;;;;;;;5050954;28;20417;-76
2022/05/10 12:53:16;;;;;;;2.90;2.60;;;;;;;;;;5032851;28;20361;-76
2022/05/10 12:55:48;;;;;;;1.70;1.60;;;;;;;;;;5050444;28;20052;-76
2022/05/10 12:58:24;;;;;;;3.78;1.98;;;;;;;;;;5050864;28;20033;-76
2022/05/10 13:00:55;;;;;;;3.80;2.20;;;;;;;;;;5050253;28;20029;-76
2022/05/10 13:03:21;;;;;;;;;;;;;;;;;;5051169;28;20078;-76
2022/05/10 13:06:07;;;;;;;3.30;1.88;;;;;;;;;;5050414;28;19912;-76
2022/05/10 13:08:45;;;;;;;9.43;1.92;;;;;;;;;;5050242;28;20023;-76
2022/05/10 13:11:11;;;;;;;2.10;1.90;;;;;;;;;;5015929;28;20052;-76
2022/05/10 13:13:37;;;;;;;3.88;2.00;;;;;;;;;;5032461;28;20017;-76
2022/05/10 13:16:04;;;;;;;2.88;2.10;;;;;;;;;;5050213;28;20037;-76
2022/05/10 13:18:30;;;;;;;3.85;1.95;;;;;;;;;;5032303;28;20453;-76
2022/05/10 13:20:58;;;;;;;3.50;1.70;;;;;;;;;;5035146;28;20041;-76
2022/05/10 13:23:31;;;;;;;5.20;2.00;;;;;;;;;;5053128;28;20037;-76
2022/05/10 13:26:06;;;;;;;3.40;2.08;;;;;;;;;;5054042;28;20024;-76
2022/05/10 13:28:33;;;;;;;2.20;1.98;;;;;;;;;;5054506;28;20029;-75
2022/05/10 13:31:00;;;;;;;4.45;2.17;;;;;;;;;;5054127;28;20025;-75
2022/05/10 13:33:28;;;;;;;3.50;2.10;;;;;;;;;;5054094;28;20043;-76
2022/05/10 13:35:56;;;;;;;4.30;2.22;;;;;;;;;;5053949;28;20476;-80
2022/05/10 13:38:21;;;;;;;3.15;1.90;;;;;;;;;;5053585;28;20033;-75
2022/05/10 13:40:48;;;;;;;5.25;2.53;;;;;;;;;;5053937;28;20033;-75
2022/05/10 13:43:21;;;;;;;3.30;2.20;;;;;;;;;;5053764;28;20389;-75
2022/05/10 13:45:51;;;;;;;3.30;2.63;;;;;;;;;;5053573;28;20040;-75
2022/05/10 13:48:18;;;;;;;2.85;2.15;;;;;;;;;;5053877;28;20679;-75
2022/05/10 13:50:49;;;;;;;5.68;2.20;;;;;;;;;;5036128;28;20532;-75
2022/05/10 13:53:16;;;;;;;;;;;;;;;;;;5053690;28;20679;-75
2022/05/10 13:55:52;;;;;;;4.10;1.80;;;;;;;;;;5053559;28;19991;-75
2022/05/10 13:58:27;;;;;;;1.85;1.75;;;;;;;;;;5053683;28;20043;-76
2022/05/10 14:00:54;;;;;;;1.98;1.75;;;;;;;;;;5035698;28;20072;-76
2022/05/10 14:03:23;;;;;;;2.25;2.05;;;;;;;;;;5052121;28;20028;-75
2022/05/10 14:05:49;;;;;;;2.70;2.10;;;;;;;;;;5052075;28;20222;-76
2022/05/10 14:08:25;;;;;;;4.60;2.60;;;;;;;;;;5052110;28;20067;-76
2022/05/10 14:11:05;;;;;;;2.33;2.13;;;;;;;;;;5050101;28;20035;-75
2022/05/10 14:13:33;;;;;;;4.10;2.03;;;;;;;;;;5049696;28;20079;-76
2022/05/10 14:15:59;;;;;;;6.97;2.00;;;;;;;;;;5049606;28;20082;-75
2022/05/10 14:18:35;;;;;;;3.42;2.50;;;;;;;;;;5049853;28;20041;-76
2022/05/10 14:21:08;;;;;;;3.78;2.35;;;;;;;;;;5049579;28;20550;-75
2022/05/10 14:23:36;;;;;;;2.78;1.42;;;;;;;;;;5049898;28;20032;-76
2022/05/10 14:26:22;;;;;;;2.65;1.60;;;;;;;;;;5049642;28;20025;-76
2022/05/10 14:28:52;;;;;;;5.63;2.35;;;;;;;;;;5049619;28;20052;-76
2022/05/10 14:31:18;;;;;;;3.28;2.35;;;;;;;;;;5049395;28;20485;-76
2022/05/10 14:33:45;;;;;;;4.90;3.28;;;;;;;;;;5049354;28;20029;-76
2022/05/10 14:36:25;;;;;;;3.22;2.05;;;;;;;;;;5050666;28;20068;-76
2022/05/10 14:38:51;;;;;;;3.63;1.92;;;;;;;;;;5051434;28;20028;-76
2022/05/10 14:41:31;;;;;;;2.28;1.80;;;;;;;;;;5051189;28;20814;-76
2022/05/10 14:43:57;;;;;;;4.30;2.30;;;;;;;;;;5050881;28;20033;-76
2022/05/10 14:46:31;;;;;;;2.75;1.98;;;;;;;;;;5050812;28;20032;-76
2022/05/10 14:49:01;;;;;;;4.63;2.30;;;;;;;;;;5051166;28;20435;-76
2022/05/10 14:51:32;;;;;;;2.35;1.90;;;;;;;;;;5050930;28;20013;-76
2022/05/10 14:53:57;;;;;;;3.50;2.45;;;;;;;;;;5051713;28;20249;-76
2022/05/10 14:56:27;;;;;;;2.53;1.83;;;;;;;;;;5051172;28;20032;-76
2022/05/10 14:58:54;;;;;;;2.13;1.80;;;;;;;;;;5050886;28;20283;-76
2022/05/10 15:01:33;;;;;;;2.13;1.98;;;;;;;;;;5050986;28;20025;-75
2022/05/10 15:04:17;;;;;;;3.67;2.23;;;;;;;;;;5051000;28;20068;-75
2022/05/10 15:06:43;;;;;;;2.17;1.98;;;;;;;;;;5050794;28;20029;-76
2022/05/10 15:09:09;;;;;;;10.38;5.68;;;;;;;;;;5050556;28;20028;-77
2022/05/10 15:13:01;;;;;;;7.63;3.88;;;;;;;;;;5050606;28;20048;-76
2022/05/10 15:14:21;;;;;;;7.53;4.85;;;;;;;;;;5050212;28;20032;-77